Time;durP1;ratioP1;P1;durP2;ratioP2;P2;SDS_P1;SDS_P2;PMS_P1;PMS_P2;Temp;Humidity;BMP_temperature;BMP_pressure;BME280_temperature;BME280_humidity;BME280_pressure;Samples;Min_cycle;Max_cycle;Signal;HPM_P1;HPM_P2
2022/07/11 00:00:08;;;;;;;1.65;0.85;;;;;;;18.75;40.48;100018.75;4413215;32;33741;-86
2022/07/11 00:02:37;;;;;;;2.33;0.77;;;;;;;18.91;40.17;100022.59;4413858;32;31901;-86
2022/07/11 00:05:05;;;;;;;2.78;0.60;;;;;;;18.88;40.41;100017.53;4427260;32;34940;-87
2022/07/11 00:07:33;;;;;;;2.95;1.00;;;;;;;18.97;39.99;100024.34;4414796;32;32826;-85
2022/07/11 00:10:03;;;;;;;2.25;0.95;;;;;;;19.02;39.87;100029.97;4404836;32;32711;-86
2022/07/11 00:12:30;;;;;;;5.60;1.48;;;;;;;18.87;40.20;100019.47;4417490;32;34278;-85
2022/07/11 00:14:58;;;;;;;1.52;0.73;;;;;;;18.96;40.08;100026.28;4404260;32;32306;-86
2022/07/11 00:17:26;;;;;;;2.55;0.70;;;;;;;18.91;40.23;100023.44;4413730;32;34300;-86
2022/07/11 00:19:54;;;;;;;3.28;0.75;;;;;;;18.64;40.81;100028.88;4413266;32;33976;-86
2022/07/11 00:22:24;;;;;;;1.17;0.60;;;;;;;18.36;41.69;100028.91;4413013;32;33760;-86
2022/07/11 00:24:52;;;;;;;3.22;0.93;;;;;;;18.24;42.44;100039.25;4413454;32;34189;-87
2022/07/11 00:27:19;;;;;;;2.30;0.65;;;;;;;18.19;42.53;100036.41;4400417;32;34178;-86
2022/07/11 00:29:47;;;;;;;2.50;0.80;;;;;;;18.29;42.25;100033.78;4413145;32;33650;-86
2022/07/11 00:32:15;;;;;;;1.60;0.70;;;;;;;18.40;42.21;100038.44;4413115;32;33427;-87
2022/07/11 00:34:46;;;;;;;4.03;1.30;;;;;;;18.49;41.94;100042.50;4425669;32;34114;-86
2022/07/11 00:37:14;;;;;;;2.37;0.95;;;;;;;18.19;42.57;100036.41;4412996;32;33947;-87
2022/07/11 00:39:42;;;;;;;4.10;0.90;;;;;;;18.37;42.60;100041.72;4413130;32;34115;-87
2022/07/11 00:42:10;;;;;;;2.65;0.90;;;;;;;18.52;41.91;100030.87;4412770;32;33285;-87
2022/07/11 00:44:37;;;;;;;3.30;0.77;;;;;;;18.69;41.57;100026.19;4412809;32;33703;-86
2022/07/11 00:47:05;;;;;;;4.45;0.77;;;;;;;18.25;42.60;100021.50;4412959;32;33237;-87
2022/07/11 00:49:33;;;;;;;3.00;0.80;;;;;;;18.43;42.31;100012.91;4413126;32;33759;-86
2022/07/11 00:52:03;;;;;;;3.22;0.80;;;;;;;18.57;42.14;100022.59;4405910;32;31905;-87
2022/07/11 00:54:31;;;;;;;3.12;0.80;;;;;;;18.53;42.27;100015.88;4411758;32;34359;-86
2022/07/11 00:57:00;;;;;;;3.62;0.75;;;;;;;18.46;42.38;100015.19;4412789;32;34389;-86
2022/07/11 00:59:29;;;;;;;3.37;0.98;;;;;;;18.36;42.52;100015.03;4412915;32;34868;-86
2022/07/11 01:01:57;;;;;;;2.12;0.70;;;;;;;18.30;42.64;100019.66;4412807;32;32712;-86
2022/07/11 01:04:26;;;;;;;3.70;0.95;;;;;;;18.26;42.86;100021.25;4413023;32;34315;-85
2022/07/11 01:06:54;;;;;;;2.08;0.70;;;;;;;18.14;43.28;100019.66;4412791;32;35342;-86
2022/07/11 01:09:21;;;;;;;2.65;0.90;;;;;;;17.74;44.35;100013.09;4412602;32;33851;-86
2022/07/11 01:11:49;;;;;;;4.15;1.10;;;;;;;17.91;43.93;100015.91;4412932;32;33143;-86
2022/07/11 01:14:18;;;;;;;3.75;1.10;;;;;;;17.86;44.21;100018.59;4412797;32;33772;-86
2022/07/11 01:16:48;;;;;;;1.25;0.62;;;;;;;18.09;43.70;100015.69;4412647;32;35040;-86
2022/07/11 01:19:16;;;;;;;2.75;0.90;;;;;;;18.01;43.78;100009.69;4412689;32;32401;-85
2022/07/11 01:21:48;;;;;;;2.33;0.90;;;;;;;17.80;44.39;100015.97;4412594;32;33464;-86
2022/07/11 01:24:16;;;;;;;2.28;1.05;;;;;;;17.70;44.65;100013.81;4412521;32;33947;-86
2022/07/11 01:26:51;;;;;;;2.10;0.90;;;;;;;17.71;44.73;100009.97;4401102;32;33919;-86
2022/07/11 01:29:19;;;;;;;1.98;0.68;;;;;;;17.61;45.00;100020.81;4412644;32;33312;-86
2022/07/11 01:31:46;;;;;;;3.33;0.93;;;;;;;17.65;45.06;100024.78;4409982;32;31937;-86
2022/07/11 01:34:14;;;;;;;2.62;0.80;;;;;;;17.47;45.90;100028.62;4409989;32;33789;-86
2022/07/11 01:36:43;;;;;;;4.47;1.10;;;;;;;17.67;45.07;100020.72;4412671;32;34312;-86
2022/07/11 01:39:10;;;;;;;1.87;0.80;;;;;;;17.59;45.38;100026.63;4400207;32;32437;-86
2022/07/11 01:41:38;;;;;;;3.47;1.15;;;;;;;17.54;45.80;100025.72;4413024;32;33270;-86
2022/07/11 01:44:06;;;;;;;1.95;0.82;;;;;;;17.43;46.06;100025.50;4412542;32;33326;-87
2022/07/11 01:46:33;;;;;;;5.87;1.08;;;;;;;17.45;46.19;100020.53;4412684;32;34262;-86
2022/07/11 01:49:01;;;;;;;2.42;0.98;;;;;;;17.52;46.15;100023.19;4413131;32;33825;-86
2022/07/11 01:51:29;;;;;;;4.82;0.95;;;;;;;17.59;46.01;100011.91;4417094;32;33522;-86
2022/07/11 01:53:57;;;;;;;4.15;1.20;;;;;;;17.65;45.88;100014.56;4404097;32;32159;-86
2022/07/11 01:56:29;;;;;;;3.00;1.00;;;;;;;17.99;44.94;100015.50;4417500;32;35174;-86
2022/07/11 01:59:00;;;;;;;4.05;1.33;;;;;;;17.56;45.99;100020.72;4417388;32;34210;-85
2022/07/11 02:01:29;;;;;;;3.50;0.90;;;;;;;17.67;45.59;100022.66;4401133;32;31866;-85
2022/07/11 02:03:58;;;;;;;5.40;1.10;;;;;;;17.61;45.86;100016.13;4413529;32;33706;-86
2022/07/11 02:06:25;;;;;;;3.50;1.10;;;;;;;17.54;45.94;100014.59;4413046;32;33879;-86
2022/07/11 02:08:53;;;;;;;3.20;1.00;;;;;;;17.74;45.52;100012.25;4412725;32;33540;-86
2022/07/11 02:11:21;;;;;;;4.50;1.25;;;;;;;17.71;45.66;100013.56;4412913;32;32783;-85
2022/07/11 02:13:48;;;;;;;5.12;1.15;;;;;;;17.70;45.69;100011.06;4412750;32;34765;-86
2022/07/11 02:16:17;;;;;;;2.60;1.10;;;;;;;17.76;45.57;100012.84;4399710;32;32937;-87
2022/07/11 02:18:45;;;;;;;3.75;1.05;;;;;;;17.25;46.88;100022.03;4399886;32;33782;-84
2022/07/11 02:21:13;;;;;;;1.60;0.95;;;;;;;17.52;46.30;100006.53;4412199;32;31950;-86
2022/07/11 02:23:41;;;;;;;2.58;0.90;;;;;;;17.22;47.00;100014.19;4412556;32;34515;-86
2022/07/11 02:26:10;;;;;;;2.30;1.02;;;;;;;17.59;46.14;100009.97;4412438;32;34608;-86
2022/07/11 02:28:39;;;;;;;3.45;1.12;;;;;;;17.39;46.87;100015.97;4411905;32;33241;-86
2022/07/11 02:31:07;;;;;;;2.90;0.90;;;;;;;17.33;47.11;100018.88;4411939;32;33561;-86
2022/07/11 02:33:35;;;;;;;3.30;0.93;;;;;;;17.37;46.72;100020.91;4412995;32;34057;-86
2022/07/11 02:36:03;;;;;;;3.30;1.10;;;;;;;17.40;46.84;100019.59;4414082;32;33739;-85
2022/07/11 02:38:34;;;;;;;2.20;0.93;;;;;;;17.48;46.71;100021.13;4414135;32;32467;-86
2022/07/11 02:41:03;;;;;;;2.22;0.73;;;;;;;17.56;46.52;100029.03;4413433;32;33253;-85
2022/07/11 02:43:30;;;;;;;5.82;1.02;;;;;;;17.67;46.19;100029.03;4413169;32;32254;-87
2022/07/11 02:45:58;;;;;;;1.58;0.80;;;;;;;17.53;46.72;100024.03;4413622;32;33983;-86
2022/07/11 02:48:30;;;;;;;4.53;1.20;;;;;;;17.68;46.30;100030.72;4413696;32;33355;-86
2022/07/11 02:50:58;;;;;;;3.95;1.40;;;;;;;17.83;46.02;100032.12;4426027;32;32862;-86
2022/07/11 02:53:26;;;;;;;3.90;1.50;;;;;;;17.72;46.23;100031.06;4413693;32;32836;-86
2022/07/11 02:55:54;;;;;;;5.35;1.17;;;;;;;17.68;46.26;100036.28;4413556;32;32975;-86
2022/07/11 02:58:22;;;;;;;2.62;1.00;;;;;;;17.75;46.29;100033.34;4401173;32;32576;-86
2022/07/11 03:00:49;;;;;;;4.28;1.00;;;;;;;17.60;46.45;100033.03;4413671;32;32775;-86
2022/07/11 03:03:20;;;;;;;3.50;1.00;;;;;;;17.45;46.92;100030.78;4413783;32;33947;-86
2022/07/11 03:05:48;;;;;;;3.35;1.20;;;;;;;17.69;46.39;100024.09;4413601;32;33859;-86
2022/07/11 03:08:15;;;;;;;4.40;0.88;;;;;;;17.62;46.44;100020.59;4413582;32;34630;-86
2022/07/11 03:10:43;;;;;;;2.28;1.00;;;;;;;17.65;46.64;100030.34;4413720;32;32011;-86
2022/07/11 03:13:12;;;;;;;3.05;0.85;;;;;;;17.75;46.36;100027.81;4400978;32;33248;-86
2022/07/11 03:15:39;;;;;;;1.98;0.90;;;;;;;17.71;46.09;100018.28;4413487;32;35077;-87
2022/07/11 03:18:07;;;;;;;3.28;1.10;;;;;;;17.54;46.31;100023.78;4401146;32;32954;-88
2022/07/11 03:20:35;;;;;;;5.87;1.17;;;;;;;17.47;46.43;100022.22;4413519;32;31748;-86
2022/07/11 03:23:03;;;;;;;3.15;1.10;;;;;;;17.67;46.06;100017.09;4413457;32;34161;-85
2022/07/11 03:25:31;;;;;;;4.90;1.10;;;;;;;17.77;45.83;100020.91;4413537;32;34413;-86
2022/07/11 03:27:59;;;;;;;2.83;1.00;;;;;;;17.55;46.11;100014.31;4413686;32;33807;-86
2022/07/11 03:30:27;;;;;;;4.15;1.10;;;;;;;17.55;46.13;100014.31;4400850;32;32327;-86
2022/07/11 03:32:54;;;;;;;6.50;1.10;;;;;;;17.42;46.57;100023.81;4413431;32;33372;-86
2022/07/11 03:35:40;;;;;;;5.32;1.02;;;;;;;17.62;46.13;100028.06;4413496;32;34624;-86
2022/07/11 03:38:09;;;;;;;7.53;1.40;;;;;;;17.86;45.30;100020.53;4415299;32;33953;-86
2022/07/11 03:40:40;;;;;;;4.97;1.15;;;;;;;17.55;45.97;100035.72;4413559;32;33498;-87
2022/07/11 03:43:08;;;;;;;4.30;1.40;;;;;;;17.54;46.08;100034.88;4426102;32;33652;-87
2022/07/11 03:45:36;;;;;;;7.65;1.23;;;;;;;17.36;46.68;100038.66;4413360;32;33380;-85
2022/07/11 03:48:05;;;;;;;2.78;1.10;;;;;;;17.37;46.65;100033.94;4413208;32;32604;-85
2022/07/11 03:50:36;;;;;;;2.35;1.05;;;;;;;17.74;45.57;100028.91;4413599;32;34235;-86
2022/07/11 03:53:04;;;;;;;4.05;1.25;;;;;;;17.59;46.14;100032.19;4413383;32;33211;-86
2022/07/11 03:55:32;;;;;;;3.40;1.10;;;;;;;17.79;45.67;100037.31;4413434;32;35170;-85
2022/07/11 03:58:01;;;;;;;2.65;0.98;;;;;;;17.69;46.08;100045.44;4413470;32;34180;-86
2022/07/11 04:00:28;;;;;;;3.50;1.10;;;;;;;17.77;46.21;100039.50;4413720;32;33111;-85
2022/07/11 04:02:57;;;;;;;5.25;1.37;;;;;;;18.15;45.15;100040.78;4397015;32;112640;-85
2022/07/11 04:05:25;;;;;;;4.20;1.20;;;;;;;18.21;44.91;100035.03;4425851;32;34330;-86
2022/07/11 04:07:54;;;;;;;6.30;1.40;;;;;;;18.25;44.91;100027.91;4413216;32;32409;-86
2022/07/11 04:10:21;;;;;;;4.50;1.20;;;;;;;18.31;44.75;100034.38;4413447;32;33130;-85
2022/07/11 04:12:49;;;;;;;3.30;1.27;;;;;;;17.51;46.58;100046.47;4413089;32;33393;-86
2022/07/11 04:15:17;;;;;;;4.62;1.45;;;;;;;17.69;46.32;100051.84;4413345;32;34480;-86
2022/07/11 04:17:46;;;;;;;3.97;1.30;;;;;;;17.88;45.97;100052.50;4413221;32;34099;-85
2022/07/11 04:20:16;;;;;;;4.55;1.62;;;;;;;18.10;45.29;100045.16;4413351;32;33217;-86
2022/07/11 04:22:43;;;;;;;3.53;1.20;;;;;;;18.12;45.35;100042.12;4425870;32;33611;-87
2022/07/11 04:25:11;;;;;;;3.92;1.50;;;;;;;18.22;45.30;100047.00;4413497;32;34056;-87
2022/07/11 04:27:39;;;;;;;4.87;1.20;;;;;;;18.28;45.10;100051.56;4412754;32;32618;-86
2022/07/11 04:30:08;;;;;;;6.18;1.30;;;;;;;18.00;45.87;100053.28;4412866;32;33728;-87
2022/07/11 04:32:36;;;;;;;2.72;1.10;;;;;;;18.24;45.39;100042.88;4412322;32;33191;-87
2022/07/11 04:35:04;;;;;;;3.67;1.30;;;;;;;18.38;45.33;100046.19;4400489;32;33103;-86
2022/07/11 04:37:31;;;;;;;7.07;1.62;;;;;;;18.46;45.04;100048.53;4413052;32;33964;-86
2022/07/11 04:40:00;;;;;;;4.60;1.15;;;;;;;18.64;44.54;100045.56;4425316;32;33454;-87
2022/07/11 04:42:30;;;;;;;5.05;1.50;;;;;;;18.71;44.57;100050.94;4412851;32;33670;-86
2022/07/11 04:44:58;;;;;;;4.57;1.33;;;;;;;18.13;45.19;100057.72;4425530;32;33992;-86
2022/07/11 04:47:25;;;;;;;6.87;1.27;;;;;;;18.72;44.31;100053.47;4413276;32;33923;-86
2022/07/11 04:49:53;;;;;;;5.68;1.20;;;;;;;18.44;44.92;100062.69;4425211;32;34031;-86
2022/07/11 04:52:26;;;;;;;5.25;1.48;;;;;;;18.27;45.47;100064.59;4413033;32;33847;-84
2022/07/11 04:54:56;;;;;;;4.85;1.30;;;;;;;18.59;44.62;100059.34;4401002;32;32528;-85
2022/07/11 04:57:24;;;;;;;2.50;1.00;;;;;;;18.57;44.54;100061.53;4400060;32;32988;-87
2022/07/11 04:59:51;;;;;;;5.75;1.20;;;;;;;18.45;45.03;100063.53;4412707;32;32853;-86
2022/07/11 05:02:22;;;;;;;6.55;1.20;;;;;;;18.42;45.25;100064.03;4400418;32;32192;-86
2022/07/11 05:04:49;;;;;;;4.65;1.20;;;;;;;18.73;44.59;100060.72;4413017;32;34064;-87
2022/07/11 05:07:17;;;;;;;4.95;1.35;;;;;;;18.85;44.42;100063.38;4413313;32;33356;-85
2022/07/11 05:09:45;;;;;;;5.12;1.35;;;;;;;18.88;44.24;100057.31;4412899;32;32509;-86
2022/07/11 05:12:12;;;;;;;3.20;1.15;;;;;;;18.82;44.53;100058.34;4412769;32;33229;-85
2022/07/11 05:14:40;;;;;;;2.40;1.17;;;;;;;18.70;44.44;100063.16;4400248;32;33039;-86
2022/07/11 05:17:08;;;;;;;5.87;1.17;;;;;;;18.37;45.34;100077.84;4412657;32;32748;-85
2022/07/11 05:19:36;;;;;;;4.80;1.30;;;;;;;18.08;45.92;100069.56;4413045;32;33450;-85
2022/07/11 05:22:04;;;;;;;6.30;1.23;;;;;;;18.28;45.67;100079.34;4412611;32;31960;-83
2022/07/11 05:24:31;;;;;;;5.45;1.10;;;;;;;18.23;45.67;100070.91;4399523;32;34107;-84
2022/07/11 05:26:59;;;;;;;6.43;1.60;;;;;;;18.55;45.15;100074.00;4412722;32;32440;-83
2022/07/11 05:29:28;;;;;;;5.90;1.30;;;;;;;18.73;46.89;100074.63;4412951;32;32729;-85
2022/07/11 05:31:55;;;;;;;4.28;1.20;;;;;;;18.67;46.05;100075.63;4412782;32;33568;-83
2022/07/11 05:34:25;;;;;;;4.80;1.40;;;;;;;18.47;46.06;100080.81;4400268;32;32904;-83
2022/07/11 05:36:56;;;;;;;4.37;1.75;;;;;;;18.84;46.03;100074.78;4413109;32;34722;-79
2022/07/11 05:39:26;;;;;;;5.12;1.30;;;;;;;18.79;45.72;100078.34;4425614;32;33214;-78
2022/07/11 05:41:54;;;;;;;6.40;1.70;;;;;;;18.91;45.47;100081.00;4425215;32;35131;-78
2022/07/11 05:44:22;;;;;;;5.90;1.37;;;;;;;19.32;46.04;100074.94;4412519;32;33006;-76
2022/07/11 05:46:49;;;;;;;6.85;1.50;;;;;;;19.09;43.83;100086.28;4400033;32;33076;-81
2022/07/11 05:49:17;;;;;;;5.47;1.37;;;;;;;19.32;43.75;100082.47;4412389;32;32758;-81
2022/07/11 05:51:45;;;;;;;5.82;1.40;;;;;;;19.39;44.83;100075.59;4412466;32;33379;-82
2022/07/11 05:54:13;;;;;;;4.50;0.98;;;;;;;19.46;43.20;100092.13;4411610;32;34455;-82
2022/07/11 05:56:40;;;;;;;5.68;1.20;;;;;;;19.73;43.50;100092.22;4395808;32;32792;-82
2022/07/11 05:59:27;;;;;;;5.35;1.73;;;;;;;19.13;43.88;100093.03;4397478;32;33048;-81
2022/07/11 06:02:19;;;;;;;5.70;1.25;;;;;;;19.55;43.68;100098.09;4412362;32;33836;-81
2022/07/11 06:05:11;;;;;;;3.30;1.37;;;;;;;19.48;43.61;100100.22;4409438;32;33714;-81
2022/07/11 06:11:11;;;;;;;5.87;1.73;;;;;;;19.87;43.31;100099.06;4409501;32;33192;-82
2022/07/11 06:14:04;;;;;;;7.25;1.70;;;;;;;19.61;43.14;100106.25;4397055;32;32835;-77
2022/07/11 06:16:57;;;;;;;5.75;1.52;;;;;;;20.03;42.89;100103.72;4423192;32;34433;-76
2022/07/11 06:19:57;;;;;;;6.53;1.62;;;;;;;19.97;41.92;100101.16;4397814;32;34114;-81
2022/07/11 06:22:53;;;;;;;9.02;1.50;;;;;;;19.93;43.20;100108.34;4397165;32;33184;-82
2022/07/11 06:25:49;;;;;;;7.65;1.65;;;;;;;20.36;41.08;100104.63;4410775;32;33978;-82
2022/07/11 06:28:45;;;;;;;3.78;1.20;;;;;;;20.03;42.10;100098.16;4423362;32;34386;-82
2022/07/11 06:31:39;;;;;;;7.35;1.33;;;;;;;20.27;41.08;100103.41;4397024;32;33661;-81
2022/07/11 06:34:39;;;;;;;6.45;1.50;;;;;;;20.05;41.40;100111.81;4410481;32;31801;-82
2022/07/11 06:37:30;;;;;;;6.25;1.30;;;;;;;19.68;42.73;100112.47;4410330;32;34557;-79
2022/07/11 06:40:24;;;;;;;4.97;1.37;;;;;;;19.91;42.26;100111.37;4411252;32;34124;-82
2022/07/11 06:43:20;;;;;;;3.97;1.40;;;;;;;20.01;42.40;100105.94;4425138;32;34581;-82
2022/07/11 06:46:14;;;;;;;4.25;1.15;;;;;;;20.39;42.13;100115.28;4410327;32;32671;-83
2022/07/11 06:49:10;;;;;;;6.20;1.52;;;;;;;20.28;41.33;100105.94;4415366;32;34505;-82
2022/07/11 06:52:10;;;;;;;4.78;1.55;;;;;;;20.35;41.29;100117.72;4410334;32;33236;-83
2022/07/11 06:54:50;;;;;;;5.28;1.35;;;;;;;20.56;40.89;100113.22;4399529;32;32643;-83
2022/07/11 06:57:18;;;;;;;5.53;1.15;;;;;;;20.66;40.72;100120.84;4409090;32;31901;-83
2022/07/11 06:59:45;;;;;;;3.80;1.37;;;;;;;20.80;40.54;100115.69;4399090;32;32273;-83
2022/07/11 07:02:30;;;;;;;4.15;1.08;;;;;;;21.09;40.39;100110.59;4411570;32;34476;-83
2022/07/11 07:05:30;;;;;;;4.90;1.20;;;;;;;21.34;38.96;100117.22;4413299;32;32514;-82
2022/07/11 07:08:24;;;;;;;10.32;1.80;;;;;;;21.02;39.20;100128.41;4413039;32;33659;-82
2022/07/11 07:11:24;;;;;;;4.03;1.20;;;;;;;21.27;38.78;100126.94;4412716;32;32211;-83
2022/07/11 07:14:17;;;;;;;5.60;1.50;;;;;;;21.47;38.67;100124.25;4425737;32;33310;-83
2022/07/11 07:17:13;;;;;;;4.97;1.20;;;;;;;21.45;38.45;100126.47;4403257;32;32530;-82
2022/07/11 07:20:16;;;;;;;5.80;1.58;;;;;;;21.23;38.44;100123.84;4409408;32;33134;-82
2022/07/11 07:23:37;;;;;;;4.12;1.12;;;;;;;21.53;38.22;100136.31;4397472;32;33246;-82
2022/07/11 07:26:25;;;;;;;;;;;;;;;21.54;37.41;100115.63;4399668;32;34357;-82
2022/07/11 07:29:25;;;;;;;3.62;1.10;;;;;;;21.79;37.86;100109.34;4410432;32;34188;-83
2022/07/11 07:31:56;;;;;;;5.53;1.20;;;;;;;22.10;38.27;100116.75;4398630;32;31867;-80
2022/07/11 07:34:25;;;;;;;6.87;1.35;;;;;;;21.78;37.36;100125.28;4385703;32;33168;-83
2022/07/11 07:36:52;;;;;;;8.75;2.15;;;;;;;21.94;37.44;100118.63;4398250;32;34291;-82
2022/07/11 07:39:20;;;;;;;5.20;1.25;;;;;;;22.14;37.12;100125.44;4397784;32;34824;-83
2022/07/11 07:42:05;;;;;;;4.55;1.37;;;;;;;22.07;36.81;100120.12;4398911;32;31628;-82
2022/07/11 07:44:58;;;;;;;6.68;1.15;;;;;;;21.56;37.00;100113.41;4386435;32;32329;-83
2022/07/11 07:47:43;;;;;;;3.70;1.12;;;;;;;21.91;36.94;100121.97;4411063;32;35460;-84
2022/07/11 07:50:42;;;;;;;5.60;1.15;;;;;;;22.07;37.72;100120.12;4398116;32;32511;-82
2022/07/11 07:53:30;;;;;;;8.85;1.55;;;;;;;22.14;36.40;100123.47;4386399;32;31730;-82
2022/07/11 07:56:24;;;;;;;6.22;1.40;;;;;;;21.57;36.66;100117.88;4398778;32;32280;-82
2022/07/11 07:59:27;;;;;;;8.82;1.45;;;;;;;21.68;37.08;100116.84;4412676;32;34559;-82
2022/07/11 08:02:48;;;;;;;3.50;1.20;;;;;;;21.79;36.44;100110.19;4406104;32;34135;-82
2022/07/11 08:05:41;;;;;;;8.18;1.90;;;;;;;22.00;37.69;100103.56;4412081;32;32007;-83
2022/07/11 08:08:32;;;;;;;6.47;1.70;;;;;;;22.38;36.33;100101.44;4399156;32;33978;-79
2022/07/11 08:11:27;;;;;;;6.62;1.42;;;;;;;22.65;36.17;100099.25;4412087;32;34495;-86
2022/07/11 08:14:25;;;;;;;5.20;1.42;;;;;;;22.84;35.65;100096.75;4410584;32;33219;-85
2022/07/11 08:17:24;;;;;;;5.12;1.30;;;;;;;22.91;34.98;100088.06;4387791;32;33688;-86
2022/07/11 08:20:15;;;;;;;8.70;1.55;;;;;;;23.13;34.41;100084.97;4411707;32;34241;-87
2022/07/11 08:23:12;;;;;;;6.75;1.52;;;;;;;23.36;34.84;100094.75;4412734;32;34370;-86
2022/07/11 08:26:12;;;;;;;7.60;1.62;;;;;;;23.51;33.65;100087.13;4409498;32;32348;-81
2022/07/11 08:29:28;;;;;;;2.45;1.00;;;;;;;23.44;34.29;100103.38;4412473;32;32971;-83
2022/07/11 08:32:11;;;;;;;;;;;;;;;23.29;32.98;100086.62;4397875;32;33929;-81
2022/07/11 08:35:01;;;;;;;5.07;1.42;;;;;;;23.52;33.18;100090.75;4398269;32;34745;-81
2022/07/11 08:37:57;;;;;;;4.90;1.30;;;;;;;23.51;33.18;100092.72;4410474;32;33063;-79
2022/07/11 08:40:55;;;;;;;5.55;1.25;;;;;;;23.60;31.52;100091.03;4400403;32;33262;-80
2022/07/11 08:43:54;;;;;;;9.35;1.20;;;;;;;23.73;31.12;100081.19;4408882;32;33603;-79
2022/07/11 08:46:41;;;;;;;2.75;0.88;;;;;;;23.85;32.20;100098.53;4421635;32;35411;-81
2022/07/11 08:49:32;;;;;;;6.65;1.40;;;;;;;23.95;33.15;100076.06;4396421;32;33197;-80
2022/07/11 08:52:43;;;;;;;3.67;1.30;;;;;;;24.36;31.16;100077.81;4410332;32;34442;-81
2022/07/11 08:55:42;;;;;;;5.75;1.40;;;;;;;24.20;30.56;100082.62;4396855;32;32363;-82
2022/07/11 08:58:32;;;;;;;4.05;1.08;;;;;;;24.51;31.35;100081.34;4410921;32;34136;-82
2022/07/11 09:01:27;;;;;;;5.90;1.10;;;;;;;24.53;30.44;100073.47;4422945;32;34865;-81
2022/07/11 09:04:24;;;;;;;4.43;1.00;;;;;;;24.36;28.02;100073.03;4398580;32;33071;-81
2022/07/11 09:07:26;;;;;;;5.87;1.52;;;;;;;24.56;28.38;100070.09;4397405;32;33312;-81
2022/07/11 09:10:25;;;;;;;4.85;1.33;;;;;;;24.78;29.42;100071.56;4398967;32;34048;-84
2022/07/11 09:13:23;;;;;;;6.07;1.20;;;;;;;24.62;29.71;100082.13;4411415;32;32862;-84
2022/07/11 09:16:26;;;;;;;3.45;1.12;;;;;;;24.79;29.29;100071.28;4416605;32;32893;-85
2022/07/11 09:19:43;;;;;;;3.97;1.02;;;;;;;24.46;27.84;100058.94;4425033;32;34014;-87
2022/07/11 09:25:57;;;;;;;3.90;1.50;;;;;;;24.80;27.66;100055.28;4379093;32;32445;-84
2022/07/11 09:28:28;;;;;;;6.07;1.27;;;;;;;24.89;28.27;100048.72;4368317;32;32896;-85
2022/07/11 09:30:56;;;;;;;6.75;1.45;;;;;;;25.08;28.31;100043.25;4402213;32;33513;-85
2022/07/11 09:33:24;;;;;;;5.25;1.30;;;;;;;25.28;28.50;100047.81;4401095;32;33870;-85
2022/07/11 09:35:53;;;;;;;3.60;1.20;;;;;;;25.47;27.22;100050.69;4412752;32;34160;-86
2022/07/11 09:38:22;;;;;;;4.62;0.90;;;;;;;25.80;26.12;100044.13;4426046;32;33179;-85
2022/07/11 09:40:50;;;;;;;4.53;1.12;;;;;;;25.61;24.95;100051.63;4413703;32;32635;-86
2022/07/11 09:43:24;;;;;;;5.47;1.55;;;;;;;25.80;24.05;100035.69;4414237;32;34561;-86
2022/07/11 09:45:52;;;;;;;6.20;1.90;;;;;;;26.06;24.96;100038.13;4425744;32;33868;-84
2022/07/11 09:48:22;;;;;;;4.68;1.58;;;;;;;26.06;25.52;100043.75;4400482;32;32181;-85
2022/07/11 09:51:06;;;;;;;5.55;1.30;;;;;;;26.06;26.58;100041.78;4412513;32;33514;-85
2022/07/11 09:53:36;;;;;;;5.82;1.52;;;;;;;26.45;25.38;100029.41;4425097;32;34480;-86
2022/07/11 09:56:20;;;;;;;3.58;1.00;;;;;;;26.33;25.45;100041.13;4412847;32;34657;-85
2022/07/11 09:59:37;;;;;;;3.17;1.23;;;;;;;26.04;24.66;100029.16;4425506;32;32144;-86
2022/07/11 10:02:27;;;;;;;6.95;1.17;;;;;;;26.17;24.55;100029.25;4426663;32;33517;-85
2022/07/11 10:05:18;;;;;;;7.12;1.40;;;;;;;26.46;23.61;100025.47;4413500;32;34902;-85
2022/07/11 10:08:16;;;;;;;7.07;1.15;;;;;;;26.40;24.30;100018.25;4424733;32;33903;-84
2022/07/11 10:11:08;;;;;;;5.50;1.20;;;;;;;26.34;22.42;100022.28;4425719;32;33266;-84
2022/07/11 10:13:59;;;;;;;4.33;1.17;;;;;;;26.40;23.18;100018.25;4438799;32;33735;-85
2022/07/11 10:16:57;;;;;;;5.47;1.30;;;;;;;26.26;24.26;100030.22;4426237;32;35012;-85
2022/07/11 10:20:06;;;;;;;5.40;1.30;;;;;;;26.24;24.59;100026.03;4415160;32;32722;-87
2022/07/11 10:23:31;;;;;;;4.43;1.12;;;;;;;26.15;24.55;100031.53;4438317;32;33516;-86
2022/07/11 10:26:39;;;;;;;6.75;1.10;;;;;;;26.26;25.09;100021.78;4380101;32;34090;-85
2022/07/11 10:29:30;;;;;;;4.62;1.23;;;;;;;26.22;23.84;100031.13;4414235;32;32663;-81
2022/07/11 10:33:11;;;;;;;3.45;1.10;;;;;;;25.85;23.38;100030.00;4409119;32;34665;-82
2022/07/11 10:36:11;;;;;;;5.53;1.10;;;;;;;25.52;23.61;100022.50;4377102;32;33417;-83
2022/07/11 10:39:21;;;;;;;4.40;1.02;;;;;;;26.18;25.24;100016.00;4365138;32;33332;-81
2022/07/11 10:42:09;;;;;;;8.98;1.30;;;;;;;26.71;23.43;100002.50;4426368;32;35406;-79
2022/07/11 10:45:05;;;;;;;4.55;1.02;;;;;;;26.81;23.14;100002.31;4426249;32;32702;-84
2022/07/11 10:47:44;;;;;;;5.03;1.40;;;;;;;26.89;22.98;100001.59;4412759;32;32698;-82
2022/07/11 10:50:37;;;;;;;6.30;1.67;;;;;;;26.72;23.10;100008.94;4402776;32;32190;-84
2022/07/11 10:53:11;;;;;;;7.25;1.20;;;;;;;26.73;22.70;100000.19;4413685;32;34453;-83
2022/07/11 10:56:13;;;;;;;3.10;0.93;;;;;;;26.32;22.64;99999.22;4414912;32;32606;-83
2022/07/11 10:59:17;;;;;;;5.10;1.20;;;;;;;26.00;23.08;99997.19;4424477;32;33450;-84
2022/07/11 11:02:11;;;;;;;5.18;1.80;;;;;;;26.85;23.00;99980.81;4426791;32;33204;-83
2022/07/11 11:04:57;;;;;;;6.15;1.40;;;;;;;27.10;23.33;99992.81;4401824;32;32906;-82
2022/07/11 11:07:36;;;;;;;4.62;1.40;;;;;;;27.18;22.52;99989.25;4426516;32;33504;-84
2022/07/11 11:10:33;;;;;;;5.05;1.30;;;;;;;27.54;22.37;99983.72;4414561;32;33386;-84
2022/07/11 11:13:08;;;;;;;;;;;;;;;27.64;22.49;99989.16;4419060;32;32339;-84
2022/07/11 11:15:46;;;;;;;5.60;1.58;;;;;;;27.27;22.76;99987.41;4427036;32;35303;-83
2022/07/11 11:18:23;;;;;;;3.62;1.10;;;;;;;27.65;22.92;99987.19;4426977;32;34219;-83
2022/07/11 11:21:07;;;;;;;4.20;1.10;;;;;;;27.75;22.29;99982.16;4420512;32;32751;-83
2022/07/11 11:24:24;;;;;;;6.32;1.50;;;;;;;27.67;22.60;99982.91;4426178;32;33722;-83
2022/07/11 11:27:16;;;;;;;8.77;1.33;;;;;;;27.54;22.70;99987.38;4402739;32;34638;-83
2022/07/11 11:30:14;;;;;;;7.57;1.45;;;;;;;27.60;22.92;99979.66;4412301;32;34367;-84
2022/07/11 11:33:02;;;;;;;5.57;1.20;;;;;;;27.54;22.25;99983.72;4426612;32;33482;-83
2022/07/11 11:36:04;;;;;;;2.45;0.93;;;;;;;26.79;22.89;100006.56;4414557;32;33617;-83
2022/07/11 11:38:56;;;;;;;6.72;1.30;;;;;;;26.33;23.78;100001.75;4403152;32;34106;-83
2022/07/11 11:41:55;;;;;;;3.78;1.00;;;;;;;26.27;23.62;99994.47;4428095;32;33919;-83
2022/07/11 11:45:00;;;;;;;5.47;1.12;;;;;;;26.22;23.83;100003.00;4425949;32;33154;-84
2022/07/11 11:47:57;;;;;;;4.45;1.40;;;;;;;26.05;23.37;100008.31;4435921;32;34104;-82
2022/07/11 11:50:35;;;;;;;6.07;1.27;;;;;;;26.01;23.36;100008.09;4414178;32;33072;-84
2022/07/11 11:53:34;;;;;;;4.82;1.05;;;;;;;26.13;24.71;100002.84;4412786;32;33911;-87
2022/07/11 11:56:28;;;;;;;5.85;1.20;;;;;;;26.14;24.30;100010.16;4435607;32;34330;-86
2022/07/11 11:59:10;;;;;;;4.28;1.17;;;;;;;26.16;23.42;100009.84;4428501;32;33729;-80
2022/07/11 12:02:05;;;;;;;5.45;1.30;;;;;;;25.64;24.35;100022.97;4431003;32;35200;-87
2022/07/11 12:04:57;;;;;;;2.20;1.17;;;;;;;25.70;24.52;100016.13;4418030;32;32913;-87
2022/07/11 12:07:55;;;;;;;6.15;1.10;;;;;;;25.71;24.35;100012.19;4417414;32;33427;-86
2022/07/11 12:10:43;;;;;;;4.60;1.20;;;;;;;26.16;23.24;100012.66;4441418;32;33747;-87
2022/07/11 12:13:38;;;;;;;4.85;1.30;;;;;;;25.30;24.15;100019.44;4412461;32;34878;-87
2022/07/11 12:16:49;;;;;;;7.57;1.23;;;;;;;25.55;23.35;100019.09;4417786;32;33861;-88
2022/07/11 12:19:54;;;;;;;5.03;1.12;;;;;;;25.74;23.60;100014.41;4406776;32;31814;-87
2022/07/11 12:23:06;;;;;;;6.30;1.10;;;;;;;26.04;23.41;100004.66;4427349;32;33146;-82
2022/07/11 12:26:10;;;;;;;3.80;1.00;;;;;;;25.82;23.84;100018.50;4410401;32;34659;-87
2022/07/11 12:41:34;;;;;;;;;;;;;;;26.76;22.01;100004.38;4202073;32;9001967;-82
2022/07/11 12:52:04;;;;;;;3.05;1.10;;;;;;;26.45;22.99;100001.28;4388494;32;33906;-84